Time;durP1;ratioP1;P1;durP2;ratioP2;P2;SDS_P1;SDS_P2;PMS_P1;PMS_P2;Temp;Humidity;BMP_temperature;BMP_pressure;BME280_temperature;BME280_humidity;BME280_pressure;Samples;Min_cycle;Max_cycle;Signal;HPM_P1;HPM_P2
2021/11/30 00:01:44;;;;;;;5.80;2.75;;;4.30;99.90;;;;;;5141179;27;20054;-64
2021/11/30 00:04:11;;;;;;;5.50;2.92;;;4.30;99.90;;;;;;5113528;28;20168;-64
2021/11/30 00:06:37;;;;;;;8.18;3.15;;;4.40;99.90;;;;;;5104704;27;20074;-64
2021/11/30 00:11:57;;;;;;;8.15;2.90;;;4.50;99.90;;;;;;5124671;27;20505;-64
2021/11/30 00:14:23;;;;;;;7.00;3.08;;;4.50;99.90;;;;;;5103708;27;20052;-64
2021/11/30 00:16:48;;;;;;;7.20;3.55;;;4.50;99.90;;;;;;5141180;27;20043;-64
2021/11/30 00:19:14;;;;;;;7.78;2.80;;;4.50;99.90;;;;;;5148520;27;20118;-64
2021/11/30 00:21:40;;;;;;;4.85;3.30;;;4.50;99.90;;;;;;5121940;27;20043;-64
2021/11/30 00:24:05;;;;;;;5.57;2.60;;;4.60;99.90;;;;;;5138199;27;20040;-64
2021/11/30 00:26:32;;;;;;;6.18;2.95;;;4.60;99.90;;;;;;5145613;27;20096;-64
2021/11/30 00:28:57;;;;;;;7.20;2.65;;;4.70;99.90;;;;;;5139207;27;20087;-64
2021/11/30 00:31:23;;;;;;;9.23;2.50;;;4.70;99.90;;;;;;5128408;27;20058;-64
2021/11/30 00:33:49;;;;;;;7.72;2.60;;;4.70;99.90;;;;;;5119664;27;20054;-64
2021/11/30 00:36:17;;;;;;;6.72;2.60;;;4.70;99.90;;;;;;5136820;27;20054;-64
2021/11/30 00:38:43;;;;;;;7.38;2.30;;;4.70;99.90;;;;;;5126198;27;20055;-65
2021/11/30 00:41:09;;;;;;;7.28;2.50;;;4.70;99.90;;;;;;5127309;27;20077;-64
2021/11/30 00:43:37;;;;;;;5.82;2.60;;;4.70;99.90;;;;;;5119958;27;20075;-64
2021/11/30 00:46:17;;;;;;;5.20;2.35;;;4.80;99.90;;;;;;5112211;27;20043;-64
2021/11/30 00:48:42;;;;;;;12.68;2.58;;;4.90;99.90;;;;;;5127224;27;20054;-64
2021/11/30 00:51:16;;;;;;;7.45;2.67;;;4.80;99.90;;;;;;5129313;27;20052;-64
2021/11/30 00:53:45;;;;;;;4.22;2.10;;;4.80;99.90;;;;;;5112583;27;20071;-64
2021/11/30 00:56:11;;;;;;;6.50;2.50;;;4.80;99.90;;;;;;5141033;27;20035;-64
2021/11/30 00:58:37;;;;;;;9.52;2.38;;;4.90;99.90;;;;;;5147597;27;20085;-64
2021/11/30 01:01:04;;;;;;;5.57;1.90;;;4.90;99.90;;;;;;5131151;27;20055;-65
2021/11/30 01:03:30;;;;;;;8.13;1.90;;;5.00;99.90;;;;;;5118038;28;20153;-64
2021/11/30 01:05:56;;;;;;;5.93;1.70;;;4.90;99.90;;;;;;5104922;27;20047;-64
2021/11/30 01:08:21;;;;;;;8.40;3.22;;;5.00;99.90;;;;;;5129131;27;20050;-64
2021/11/30 01:10:48;;;;;;;5.32;1.80;;;4.90;99.90;;;;;;5147580;27;20043;-64
2021/11/30 01:13:15;;;;;;;5.63;2.47;;;4.90;99.90;;;;;;5121392;27;20057;-64
2021/11/30 01:15:40;;;;;;;5.55;1.92;;;4.90;99.90;;;;;;5116751;27;20047;-64
2021/11/30 01:18:06;;;;;;;4.72;1.65;;;4.90;99.90;;;;;;5142240;27;20045;-64
2021/11/30 01:20:32;;;;;;;6.70;2.28;;;4.90;99.90;;;;;;5125030;27;20162;-64
2021/11/30 01:22:58;;;;;;;5.00;1.80;;;4.80;99.90;;;;;;5104963;27;20071;-64
2021/11/30 01:25:25;;;;;;;10.40;2.20;;;4.80;99.90;;;;;;5146906;27;20066;-64
2021/11/30 01:27:51;;;;;;;5.88;2.25;;;4.70;99.90;;;;;;5142179;27;20043;-64
2021/11/30 01:30:17;;;;;;;9.95;2.50;;;4.60;99.90;;;;;;5122124;28;20043;-64
2021/11/30 01:32:44;;;;;;;6.88;2.53;;;4.60;99.90;;;;;;5113039;28;20043;-64
2021/11/30 01:35:11;;;;;;;7.35;2.47;;;4.60;99.90;;;;;;5146519;27;20055;-64
2021/11/30 01:37:38;;;;;;;7.32;2.63;;;4.50;99.90;;;;;;5120720;27;20058;-64
2021/11/30 01:40:10;;;;;;;7.00;3.17;;;4.40;99.90;;;;;;5140162;27;20082;-64
2021/11/30 01:42:40;;;;;;;7.68;3.30;;;4.40;99.90;;;;;;5122022;27;20051;-64
2021/11/30 01:45:08;;;;;;;10.80;4.30;;;4.30;99.90;;;;;;5119180;27;20507;-64
2021/11/30 01:48:09;;;;;;;9.60;4.10;;;4.30;99.90;;;;;;5121294;27;20051;-64
2021/11/30 01:50:38;;;;;;;9.45;4.50;;;4.40;99.90;;;;;;5116838;27;20050;-64
2021/11/30 01:53:05;;;;;;;13.05;4.88;;;4.30;99.90;;;;;;5132467;27;20052;-64
2021/11/30 01:55:32;;;;;;;9.48;4.60;;;4.30;99.90;;;;;;5118342;27;20506;-64
2021/11/30 01:57:59;;;;;;;10.75;4.90;;;4.30;99.90;;;;;;5145806;27;20121;-64
2021/11/30 02:00:26;;;;;;;9.77;4.65;;;4.30;99.90;;;;;;5129399;27;20130;-64
2021/11/30 02:02:52;;;;;;;11.93;4.82;;;4.30;99.90;;;;;;5115251;27;20051;-64
2021/11/30 02:05:18;;;;;;;9.23;5.38;;;4.30;99.90;;;;;;5146384;27;20050;-64
2021/11/30 02:07:44;;;;;;;10.05;4.97;;;4.20;99.90;;;;;;5138971;27;20085;-64
2021/11/30 02:10:13;;;;;;;11.13;4.38;;;4.20;99.90;;;;;;5120753;27;20110;-64
2021/11/30 02:12:41;;;;;;;9.13;5.37;;;4.20;99.90;;;;;;5113825;27;20052;-64
2021/11/30 02:15:09;;;;;;;12.68;6.50;;;4.10;99.90;;;;;;5130848;27;20040;-64
2021/11/30 02:17:35;;;;;;;7.85;5.00;;;4.10;99.90;;;;;;5134209;27;20054;-64
2021/11/30 02:20:02;;;;;;;8.75;5.13;;;4.10;99.90;;;;;;5146677;27;20487;-64
2021/11/30 02:22:29;;;;;;;12.00;6.80;;;4.10;99.90;;;;;;5114586;27;20542;-64
2021/11/30 02:24:55;;;;;;;11.02;7.20;;;4.00;99.90;;;;;;5115619;28;20047;-64
2021/11/30 02:27:22;;;;;;;11.50;6.50;;;4.00;99.90;;;;;;5139669;27;20060;-64
2021/11/30 02:29:48;;;;;;;12.02;7.25;;;4.10;99.90;;;;;;5121903;27;20047;-64
2021/11/30 02:32:15;;;;;;;12.43;7.18;;;4.00;99.90;;;;;;5144783;27;20039;-64
2021/11/30 02:34:41;;;;;;;12.75;6.93;;;4.00;99.90;;;;;;5127006;27;20047;-64
2021/11/30 02:37:09;;;;;;;12.38;7.40;;;4.00;99.90;;;;;;5096414;27;20168;-64
2021/11/30 02:39:36;;;;;;;13.25;7.25;;;4.10;99.90;;;;;;5120542;27;20043;-64
2021/11/30 02:42:05;;;;;;;11.02;7.50;;;4.10;99.90;;;;;;5140370;27;20091;-64
2021/11/30 02:44:32;;;;;;;12.65;7.15;;;4.20;99.90;;;;;;5134829;27;20035;-64
2021/11/30 02:47:09;;;;;;;13.18;8.07;;;4.20;99.90;;;;;;5120288;27;20047;-64
2021/11/30 02:49:38;;;;;;;9.55;6.68;;;4.10;99.90;;;;;;5127391;27;20043;-64
2021/11/30 02:52:14;;;;;;;11.02;6.90;;;4.20;99.90;;;;;;5120334;27;20074;-64
2021/11/30 02:54:43;;;;;;;12.13;8.25;;;4.20;99.90;;;;;;5126511;27;20050;-64
2021/11/30 02:57:11;;;;;;;10.75;7.90;;;4.20;99.90;;;;;;5120538;28;20054;-64
2021/11/30 02:59:43;;;;;;;12.35;8.63;;;4.20;99.90;;;;;;5140386;27;20048;-64
2021/11/30 03:02:17;;;;;;;12.13;8.60;;;4.20;99.90;;;;;;5115349;28;20047;-64
2021/11/30 03:04:45;;;;;;;13.85;10.38;;;4.20;99.90;;;;;;5129830;28;20461;-64
2021/11/30 03:07:15;;;;;;;13.10;9.07;;;4.20;99.90;;;;;;5124817;28;20039;-64
2021/11/30 03:09:41;;;;;;;11.70;9.75;;;4.30;99.90;;;;;;5142118;28;20047;-64
2021/11/30 03:12:08;;;;;;;11.18;9.98;;;4.30;99.90;;;;;;5131609;28;20047;-64
2021/11/30 03:14:35;;;;;;;14.95;9.82;;;4.30;99.90;;;;;;5127248;28;20053;-64
2021/11/30 03:17:01;;;;;;;13.05;10.98;;;4.30;99.90;;;;;;5124689;28;20049;-64
2021/11/30 03:19:28;;;;;;;12.38;11.07;;;4.20;99.90;;;;;;5118844;28;20069;-64
2021/11/30 03:21:54;;;;;;;13.63;11.98;;;4.30;99.90;;;;;;5115151;28;20100;-64
2021/11/30 03:24:20;;;;;;;14.48;10.10;;;4.30;99.90;;;;;;5126587;28;20031;-64
2021/11/30 03:26:46;;;;;;;16.08;10.90;;;4.30;99.90;;;;;;5116361;28;20111;-64
2021/11/30 03:29:13;;;;;;;11.35;9.13;;;4.40;99.90;;;;;;5130393;28;20424;-64
2021/11/30 03:34:14;;;;;;;14.77;10.88;;;4.50;99.90;;;;;;5138163;28;20054;-64
2021/11/30 03:36:44;;;;;;;11.07;9.95;;;4.50;99.90;;;;;;5127333;27;20069;-64
2021/11/30 03:39:13;;;;;;;12.52;10.43;;;4.50;99.90;;;;;;5125747;27;20044;-64
2021/11/30 03:41:39;;;;;;;13.63;10.30;;;4.60;99.90;;;;;;5128255;27;20503;-64
2021/11/30 03:44:07;;;;;;;11.82;10.25;;;4.60;99.90;;;;;;5127221;27;20044;-64
2021/11/30 03:46:34;;;;;;;13.57;11.55;;;4.60;99.90;;;;;;5142673;27;20047;-64
2021/11/30 03:49:03;;;;;;;12.50;9.70;;;4.70;99.90;;;;;;5098925;28;20065;-64
2021/11/30 03:51:29;;;;;;;11.85;9.85;;;4.80;99.90;;;;;;5128198;27;20043;-64
2021/11/30 03:53:54;;;;;;;11.70;9.60;;;4.80;99.90;;;;;;5139997;27;20035;-64
2021/11/30 03:56:20;;;;;;;10.98;9.85;;;4.80;99.90;;;;;;5119712;27;20051;-64
2021/11/30 03:58:46;;;;;;;9.70;8.70;;;4.80;99.90;;;;;;5120372;28;20044;-64
2021/11/30 04:01:11;;;;;;;11.38;8.70;;;4.80;99.90;;;;;;5139500;27;20061;-64
2021/11/30 04:03:40;;;;;;;10.65;9.32;;;4.90;99.90;;;;;;5128995;27;20051;-64
2021/11/30 04:06:05;;;;;;;11.65;8.80;;;4.90;99.90;;;;;;5113603;27;20082;-64
2021/11/30 04:08:32;;;;;;;9.32;8.30;;;4.90;99.90;;;;;;5110217;27;20050;-64
2021/11/30 04:10:58;;;;;;;9.98;8.43;;;4.90;99.90;;;;;;5135257;27;20496;-64
2021/11/30 04:13:24;;;;;;;8.77;7.72;;;5.00;99.90;;;;;;5125063;27;20191;-64
2021/11/30 04:15:50;;;;;;;8.90;7.57;;;5.10;99.90;;;;;;5116271;27;20101;-64
2021/11/30 04:18:16;;;;;;;8.52;7.63;;;5.10;99.90;;;;;;5126838;28;20166;-64
2021/11/30 04:20:41;;;;;;;8.73;7.63;;;5.10;99.90;;;;;;5137826;27;20043;-64
2021/11/30 04:23:07;;;;;;;8.68;7.78;;;5.20;99.90;;;;;;5148206;27;20056;-64
2021/11/30 04:25:33;;;;;;;8.38;7.35;;;5.20;99.90;;;;;;5141008;27;20047;-64
2021/11/30 04:27:59;;;;;;;9.13;7.78;;;5.30;99.90;;;;;;5122718;27;20127;-64
2021/11/30 04:30:25;;;;;;;9.50;6.82;;;5.20;99.90;;;;;;5138950;27;20035;-64
2021/11/30 04:32:52;;;;;;;9.20;7.50;;;5.30;99.90;;;;;;5130448;27;20039;-64
2021/11/30 04:35:18;;;;;;;8.55;6.90;;;5.30;99.90;;;;;;5123769;28;20123;-64
2021/11/30 04:37:45;;;;;;;7.07;6.38;;;5.40;99.90;;;;;;5125936;27;20058;-64
2021/11/30 04:40:12;;;;;;;9.60;6.60;;;5.40;99.90;;;;;;5125520;27;20031;-64
2021/11/30 04:42:41;;;;;;;7.10;6.35;;;5.40;99.90;;;;;;5123247;27;20098;-64
2021/11/30 04:45:10;;;;;;;8.02;6.43;;;5.50;99.90;;;;;;5129820;27;20047;-64
2021/11/30 04:47:38;;;;;;;7.40;6.18;;;5.50;99.90;;;;;;5125766;28;20047;-64
2021/11/30 04:50:15;;;;;;;7.90;6.15;;;5.50;99.90;;;;;;5128320;27;20113;-64
2021/11/30 04:52:42;;;;;;;8.05;6.63;;;5.50;99.90;;;;;;5115917;27;20043;-64
2021/11/30 04:55:08;;;;;;;8.35;6.40;;;5.60;99.90;;;;;;5127999;27;20048;-64
2021/11/30 04:57:34;;;;;;;8.52;6.72;;;5.60;99.90;;;;;;5147755;27;20234;-65
2021/11/30 05:00:00;;;;;;;8.00;6.75;;;5.70;99.90;;;;;;5111453;27;20118;-65
2021/11/30 05:02:26;;;;;;;9.00;6.65;;;5.70;99.90;;;;;;5146395;27;20104;-64
2021/11/30 05:04:51;;;;;;;8.82;6.70;;;5.70;99.90;;;;;;5127533;27;20043;-64
2021/11/30 05:07:17;;;;;;;8.60;6.55;;;5.70;99.90;;;;;;5119177;27;20039;-64
2021/11/30 05:09:44;;;;;;;8.65;6.82;;;5.80;99.90;;;;;;5119301;27;20059;-65
2021/11/30 05:12:10;;;;;;;8.13;6.45;;;5.80;99.90;;;;;;5140020;27;20142;-65
2021/11/30 05:14:37;;;;;;;9.60;6.75;;;5.80;99.90;;;;;;5128917;27;20062;-65
2021/11/30 05:17:04;;;;;;;10.45;6.90;;;5.80;99.90;;;;;;5127867;27;20054;-65
2021/11/30 05:19:30;;;;;;;8.38;6.30;;;5.80;99.90;;;;;;5146628;27;20102;-64
2021/11/30 05:21:56;;;;;;;9.27;6.80;;;5.80;99.90;;;;;;5128626;27;20050;-64
2021/11/30 05:24:21;;;;;;;11.80;7.07;;;5.90;99.90;;;;;;5140594;27;20051;-65
2021/11/30 05:26:48;;;;;;;11.18;7.00;;;5.90;99.90;;;;;;5124522;27;20073;-64
2021/11/30 05:29:14;;;;;;;11.35;7.22;;;5.90;99.90;;;;;;5130978;27;20031;-64
2021/11/30 05:31:40;;;;;;;11.00;7.20;;;6.00;99.90;;;;;;5146190;27;20043;-64
2021/11/30 05:34:06;;;;;;;10.20;6.97;;;6.00;99.90;;;;;;5145550;27;20076;-64
2021/11/30 05:36:33;;;;;;;10.35;6.82;;;6.10;99.90;;;;;;5122785;27;20047;-64
2021/11/30 05:38:59;;;;;;;10.43;6.80;;;6.10;99.90;;;;;;5121093;28;20048;-65
2021/11/30 05:41:25;;;;;;;11.07;6.30;;;6.20;99.90;;;;;;5145663;27;20108;-64
2021/11/30 05:43:52;;;;;;;12.98;7.20;;;6.20;99.90;;;;;;5113794;27;20411;-64
2021/11/30 05:46:19;;;;;;;11.60;6.15;;;6.30;99.90;;;;;;5128585;27;20043;-65
2021/11/30 05:48:44;;;;;;;11.38;6.68;;;6.30;99.90;;;;;;5118437;27;20081;-64
2021/11/30 05:51:10;;;;;;;10.68;6.25;;;6.30;99.90;;;;;;5123187;27;20419;-65
2021/11/30 05:53:36;;;;;;;12.07;6.13;;;6.40;99.90;;;;;;5138034;27;20040;-64
2021/11/30 05:56:04;;;;;;;10.60;5.80;;;6.40;99.90;;;;;;5091992;27;20507;-64
2021/11/30 05:58:34;;;;;;;8.50;4.10;;;6.50;99.90;;;;;;5121506;27;20107;-64
2021/11/30 06:01:07;;;;;;;8.65;3.70;;;6.60;99.90;;;;;;5132447;27;20062;-64
2021/11/30 06:03:45;;;;;;;6.78;2.70;;;6.60;99.90;;;;;;5120931;27;20113;-63
2021/11/30 06:06:10;;;;;;;5.28;1.80;;;6.90;99.90;;;;;;5094178;28;20124;-66
2021/11/30 06:08:36;;;;;;;7.18;1.60;;;7.00;99.90;;;;;;5113241;27;20050;-64
2021/11/30 06:11:02;;;;;;;7.28;1.40;;;7.00;99.90;;;;;;5095903;27;20221;-66
2021/11/30 06:13:28;;;;;;;8.10;1.73;;;7.10;99.90;;;;;;5119754;27;20051;-66
2021/11/30 06:15:53;;;;;;;8.57;1.23;;;7.20;99.90;;;;;;5116006;27;20039;-66
2021/11/30 06:18:19;;;;;;;6.85;1.40;;;7.30;99.90;;;;;;5101987;27;20139;-65
2021/11/30 06:20:47;;;;;;;8.57;2.05;;;7.40;99.90;;;;;;5117999;27;20053;-66
2021/11/30 06:23:13;;;;;;;12.77;1.73;;;7.40;99.90;;;;;;5113728;27;20062;-65
2021/11/30 06:25:38;;;;;;;9.60;1.83;;;7.50;99.90;;;;;;5115791;27;20055;-65
2021/11/30 06:28:04;;;;;;;7.75;1.40;;;7.50;99.90;;;;;;5126889;27;20066;-65
2021/11/30 06:30:30;;;;;;;10.63;1.42;;;7.60;99.90;;;;;;5121670;27;20039;-65
2021/11/30 06:32:56;;;;;;;6.00;1.38;;;7.70;99.90;;;;;;5128630;27;20047;-66
2021/11/30 06:35:22;;;;;;;9.80;1.63;;;7.60;99.90;;;;;;5103184;27;20134;-66
2021/11/30 06:37:47;;;;;;;12.55;2.25;;;7.60;99.90;;;;;;5106818;27;20053;-66
2021/11/30 06:40:13;;;;;;;10.27;1.63;;;7.70;99.90;;;;;;5116216;27;20051;-66
2021/11/30 06:42:40;;;;;;;11.23;2.03;;;7.80;99.90;;;;;;5107269;27;20178;-66
2021/11/30 06:45:07;;;;;;;13.50;1.75;;;7.80;99.90;;;;;;5103822;27;20035;-67
2021/11/30 06:47:33;;;;;;;8.02;1.83;;;7.90;99.90;;;;;;5107530;27;20089;-66
2021/11/30 06:50:00;;;;;;;12.77;1.83;;;7.90;99.90;;;;;;5116752;28;20047;-66
2021/11/30 06:52:26;;;;;;;12.18;1.90;;;7.90;99.90;;;;;;5105429;28;20054;-65
2021/11/30 06:54:54;;;;;;;9.32;1.83;;;7.90;99.90;;;;;;5121145;27;20043;-67
2021/11/30 06:57:21;;;;;;;11.57;1.48;;;7.90;99.90;;;;;;5091082;27;20042;-66
2021/11/30 06:59:47;;;;;;;12.38;1.63;;;7.90;99.90;;;;;;5110273;28;20096;-66
2021/11/30 07:02:13;;;;;;;12.10;1.63;;;7.90;99.90;;;;;;5102279;28;20076;-66
2021/11/30 07:04:52;;;;;;;9.20;1.60;;;7.90;99.90;;;;;;5086407;28;20127;-67
2021/11/30 07:07:34;;;;;;;11.27;1.73;;;7.90;99.90;;;;;;5118963;28;20122;-66
2021/11/30 07:15:04;;;;;;;14.30;2.22;;;7.80;99.90;;;;;;5140699;27;20043;-64
2021/11/30 07:17:31;;;;;;;9.98;1.98;;;7.90;99.90;;;;;;5107225;27;20060;-64
2021/11/30 07:19:57;;;;;;;13.77;2.00;;;7.90;99.90;;;;;;5135607;27;20523;-64
2021/11/30 07:22:23;;;;;;;10.20;2.10;;;7.90;99.90;;;;;;5122744;27;20039;-64
2021/11/30 07:24:49;;;;;;;15.00;2.20;;;7.90;99.90;;;;;;5122474;27;20055;-65
2021/11/30 07:27:15;;;;;;;18.15;2.40;;;7.90;99.90;;;;;;5111397;27;20058;-64
2021/11/30 07:29:41;;;;;;;20.40;3.40;;;7.90;99.90;;;;;;5134916;27;20036;-64
2021/11/30 07:32:07;;;;;;;12.35;2.33;;;7.90;99.90;;;;;;5129690;27;20043;-64
2021/11/30 07:34:35;;;;;;;13.45;2.22;;;8.00;99.90;;;;;;5141936;27;20051;-64
2021/11/30 07:37:01;;;;;;;13.35;2.50;;;8.00;99.90;;;;;;5129473;27;20043;-63
2021/11/30 07:39:27;;;;;;;10.63;2.38;;;8.00;99.90;;;;;;5119514;27;20065;-63
2021/11/30 07:41:52;;;;;;;13.40;1.90;;;8.00;99.90;;;;;;5110558;27;20090;-64
2021/11/30 07:44:18;;;;;;;14.30;2.10;;;8.00;99.90;;;;;;5140291;27;20340;-63
2021/11/30 07:46:44;;;;;;;18.08;3.00;;;7.90;99.90;;;;;;5116646;27;20058;-63
2021/11/30 07:49:12;;;;;;;13.60;2.20;;;7.90;99.90;;;;;;5088530;27;20594;-63
2021/11/30 07:51:38;;;;;;;13.23;2.20;;;7.80;99.90;;;;;;5121552;27;20058;-63
2021/11/30 07:54:04;;;;;;;17.05;3.45;;;7.90;99.90;;;;;;5099393;27;20043;-63
2021/11/30 07:56:31;;;;;;;14.98;2.63;;;7.90;99.90;;;;;;5117722;27;20055;-63
2021/11/30 07:58:57;;;;;;;14.30;3.00;;;8.00;99.90;;;;;;5105766;27;20043;-63
2021/11/30 08:01:23;;;;;;;22.13;2.30;;;8.00;99.90;;;;;;5117163;27;20427;-63
2021/11/30 08:03:49;;;;;;;15.65;2.83;;;8.00;99.90;;;;;;5127252;27;20040;-63
2021/11/30 08:06:15;;;;;;;15.02;2.47;;;8.00;99.90;;;;;;5114190;27;20082;-63
2021/11/30 08:08:41;;;;;;;18.92;2.75;;;8.10;99.90;;;;;;5110210;27;20062;-63
2021/11/30 08:11:08;;;;;;;15.35;2.67;;;8.00;99.90;;;;;;5116949;27;20043;-63
2021/11/30 08:13:34;;;;;;;16.75;2.28;;;8.00;99.90;;;;;;5126635;27;20055;-63
2021/11/30 08:15:59;;;;;;;14.13;2.20;;;8.00;99.90;;;;;;5117394;27;20051;-63
2021/11/30 08:18:26;;;;;;;19.98;2.90;;;8.00;99.90;;;;;;5110235;27;20050;-63
2021/11/30 08:20:52;;;;;;;18.15;2.63;;;7.90;99.90;;;;;;5137318;27;20047;-63
2021/11/30 08:23:18;;;;;;;15.40;3.17;;;7.90;99.90;;;;;;5110013;27;20061;-63
2021/11/30 08:25:44;;;;;;;20.08;3.22;;;7.90;99.90;;;;;;5117366;27;20050;-63
2021/11/30 08:28:10;;;;;;;18.95;2.35;;;7.90;99.90;;;;;;5110857;27;20043;-63
2021/11/30 08:30:36;;;;;;;15.13;2.40;;;7.90;99.90;;;;;;5121222;27;20105;-63
2021/11/30 08:33:03;;;;;;;21.45;2.72;;;7.90;99.90;;;;;;5108879;27;20047;-63
2021/11/30 08:35:29;;;;;;;23.42;2.97;;;7.80;99.90;;;;;;5134855;27;20601;-63
2021/11/30 08:37:54;;;;;;;12.43;2.53;;;7.90;99.90;;;;;;5106387;28;20050;-63
2021/11/30 08:40:21;;;;;;;20.60;3.25;;;7.90;99.90;;;;;;5107068;27;20350;-63
2021/11/30 08:42:47;;;;;;;12.88;2.65;;;8.00;99.90;;;;;;5127107;27;20342;-63
2021/11/30 08:45:12;;;;;;;14.60;2.10;;;8.00;99.90;;;;;;5140324;27;20334;-63
2021/11/30 08:47:39;;;;;;;16.08;2.40;;;8.10;99.90;;;;;;5128211;27;20043;-62
2021/11/30 08:50:12;;;;;;;16.05;2.22;;;8.10;99.90;;;;;;5106887;27;20288;-63
2021/11/30 08:52:38;;;;;;;11.32;1.90;;;8.20;99.90;;;;;;5108714;27;20055;-63
2021/11/30 08:55:04;;;;;;;10.60;1.67;;;8.20;99.90;;;;;;5119227;27;20027;-63
2021/11/30 08:57:30;;;;;;;11.13;1.40;;;8.20;99.90;;;;;;5101263;27;20554;-63
2021/11/30 08:59:56;;;;;;;8.77;1.38;;;8.10;99.90;;;;;;5112258;27;20044;-63
2021/11/30 09:02:24;;;;;;;8.70;1.90;;;8.20;99.90;;;;;;5106435;27;20043;-63
2021/11/30 09:04:51;;;;;;;6.78;1.40;;;8.20;99.90;;;;;;5098720;27;20356;-63
2021/11/30 09:07:17;;;;;;;8.88;2.15;;;8.20;99.90;;;;;;5127006;27;20234;-63
2021/11/30 09:09:47;;;;;;;7.65;1.65;;;8.20;99.90;;;;;;5134584;27;20637;-63
2021/11/30 09:12:14;;;;;;;6.95;1.40;;;8.20;99.90;;;;;;5138442;27;20077;-66
2021/11/30 09:14:40;;;;;;;6.13;1.35;;;8.20;99.90;;;;;;5122036;27;20059;-63
2021/11/30 09:17:06;;;;;;;9.57;2.00;;;8.20;99.90;;;;;;5141183;27;20046;-63
2021/11/30 09:19:32;;;;;;;10.75;1.88;;;8.20;99.90;;;;;;5093859;27;20589;-63
2021/11/30 09:21:58;;;;;;;8.32;1.42;;;8.30;99.90;;;;;;5138339;27;20234;-63
2021/11/30 09:24:25;;;;;;;6.97;1.50;;;8.30;99.90;;;;;;5104270;27;20071;-63
2021/11/30 09:26:52;;;;;;;9.48;1.75;;;8.20;99.90;;;;;;5137277;27;20047;-63
2021/11/30 09:29:17;;;;;;;8.07;1.25;;;8.20;99.90;;;;;;5090204;27;20071;-63
2021/11/30 09:31:44;;;;;;;9.73;1.52;;;8.10;99.90;;;;;;5140715;27;20054;-62
2021/11/30 09:34:10;;;;;;;8.65;1.85;;;8.10;99.90;;;;;;5126298;27;20044;-63
2021/11/30 09:36:36;;;;;;;9.00;1.50;;;8.00;99.90;;;;;;5137691;27;20134;-63
2021/11/30 09:39:06;;;;;;;7.72;1.40;;;8.00;99.90;;;;;;5126733;27;20043;-64
2021/11/30 09:41:33;;;;;;;5.85;1.45;;;7.90;99.90;;;;;;5138729;27;20050;-63
2021/11/30 09:43:59;;;;;;;7.82;1.15;;;7.90;99.90;;;;;;5121746;27;20116;-62
2021/11/30 09:46:25;;;;;;;9.35;1.85;;;7.90;99.90;;;;;;5109869;27;20043;-63
2021/11/30 09:48:52;;;;;;;7.65;1.40;;;7.90;99.90;;;;;;5119464;27;20043;-63
2021/11/30 09:51:18;;;;;;;6.75;1.20;;;7.90;99.90;;;;;;5105242;28;20377;-63
2021/11/30 09:53:45;;;;;;;9.18;2.17;;;7.90;99.90;;;;;;5107113;27;20043;-63
2021/11/30 09:56:12;;;;;;;9.98;1.63;;;7.90;99.90;;;;;;5101635;27;20152;-63
2021/11/30 09:58:38;;;;;;;10.13;1.80;;;8.00;99.90;;;;;;5128519;27;20057;-63
2021/11/30 10:01:08;;;;;;;9.43;1.77;;;8.00;99.90;;;;;;5120301;27;20485;-63
2021/11/30 10:03:34;;;;;;;9.13;1.20;;;8.10;99.90;;;;;;5110711;27;20526;-63
2021/11/30 10:06:00;;;;;;;8.93;1.33;;;8.10;99.90;;;;;;5128222;27;20152;-63
2021/11/30 10:08:28;;;;;;;6.45;1.30;;;8.10;99.90;;;;;;5099054;27;20058;-63
2021/11/30 10:10:55;;;;;;;7.00;1.27;;;8.10;99.90;;;;;;5132166;27;20048;-63
2021/11/30 10:13:21;;;;;;;8.32;1.88;;;8.10;99.90;;;;;;5103889;27;20055;-63
2021/11/30 10:15:50;;;;;;;8.63;1.15;;;8.10;99.90;;;;;;5118863;27;20168;-63
2021/11/30 10:18:23;;;;;;;5.50;1.00;;;8.10;99.90;;;;;;5104194;28;20043;-63
2021/11/30 10:20:52;;;;;;;9.23;1.23;;;8.00;99.90;;;;;;5102695;28;20062;-63
2021/11/30 10:23:19;;;;;;;7.03;1.45;;;8.00;99.90;;;;;;5085656;27;20043;-63
2021/11/30 10:25:48;;;;;;;10.48;1.65;;;8.00;99.90;;;;;;5128451;27;20078;-63
2021/11/30 10:28:18;;;;;;;8.32;1.65;;;8.10;99.90;;;;;;5086118;28;20075;-63
2021/11/30 10:30:45;;;;;;;;;;;8.10;99.90;;;;;;5103383;28;20046;-63
2021/11/30 10:33:23;;;;;;;7.78;1.60;;;8.10;99.90;;;;;;5098970;28;19973;-63
2021/11/30 10:35:54;;;;;;;10.98;1.80;;;8.20;99.90;;;;;;5126640;27;20039;-63
2021/11/30 10:38:23;;;;;;;10.70;2.10;;;8.30;99.90;;;;;;5124114;27;20047;-63
2021/11/30 10:40:49;;;;;;;10.85;1.83;;;8.20;99.90;;;;;;5111819;27;20039;-63
2021/11/30 10:43:18;;;;;;;7.13;1.42;;;8.20;99.90;;;;;;5120828;27;20120;-62
2021/11/30 10:45:49;;;;;;;6.85;1.25;;;8.30;99.90;;;;;;5129694;27;20031;-62
2021/11/30 10:48:20;;;;;;;8.52;1.63;;;8.30;99.90;;;;;;5127548;27;20084;-63
2021/11/30 10:50:54;;;;;;;9.32;2.72;;;8.30;99.90;;;;;;5114055;27;20127;-63
2021/11/30 10:53:24;;;;;;;11.50;2.70;;;8.30;99.90;;;;;;5123336;27;20063;-63
2021/11/30 10:55:54;;;;;;;10.07;1.38;;;8.30;99.90;;;;;;5100436;27;20543;-63
2021/11/30 10:58:22;;;;;;;9.75;1.35;;;8.30;99.90;;;;;;5128094;27;20085;-63
2021/11/30 11:00:49;;;;;;;7.70;1.90;;;8.30;99.90;;;;;;5137537;27;20090;-63
2021/11/30 11:03:18;;;;;;;9.43;1.92;;;8.30;99.90;;;;;;5107320;28;20066;-63
2021/11/30 11:08:51;;;;;;;9.52;1.88;;;8.40;99.90;;;;;;5121745;28;20054;-63
2021/11/30 11:11:22;;;;;;;11.43;2.40;;;8.40;99.90;;;;;;5113507;28;20046;-63
2021/11/30 11:13:48;;;;;;;10.98;1.50;;;8.40;99.90;;;;;;5124000;28;20055;-63
2021/11/30 11:16:51;;;;;;;10.35;2.25;;;8.40;99.90;;;;;;5130821;28;20570;-63
2021/11/30 11:19:19;;;;;;;9.10;1.73;;;8.40;99.90;;;;;;5036689;28;20056;-63
2021/11/30 11:21:45;;;;;;;12.68;1.67;;;8.40;99.90;;;;;;5052436;28;20493;-63
2021/11/30 11:24:25;;;;;;;13.52;2.20;;;8.40;99.90;;;;;;5038848;28;20057;-63
2021/11/30 11:26:56;;;;;;;11.85;2.20;;;8.40;99.90;;;;;;5049928;28;20667;-63
2021/11/30 11:29:29;;;;;;;7.78;1.80;;;8.40;99.90;;;;;;5027984;28;20584;-63
2021/11/30 11:31:56;;;;;;;14.88;2.22;;;8.40;99.90;;;;;;5048712;28;20042;-62
2021/11/30 11:34:26;;;;;;;15.70;2.38;;;8.40;99.90;;;;;;5030799;28;20054;-63
2021/11/30 11:36:54;;;;;;;11.40;2.42;;;8.40;99.90;;;;;;5048205;28;20057;-64
2021/11/30 11:39:23;;;;;;;11.35;2.00;;;8.40;99.90;;;;;;5040146;28;20041;-64
2021/11/30 11:42:01;;;;;;;14.13;2.65;;;8.40;99.90;;;;;;5052807;28;20045;-64
2021/11/30 11:44:27;;;;;;;9.55;1.98;;;8.40;99.90;;;;;;5040023;28;20109;-64
2021/11/30 11:46:58;;;;;;;12.85;2.10;;;8.40;99.90;;;;;;5050648;28;20045;-64
2021/11/30 11:49:25;;;;;;;11.27;1.92;;;8.30;99.90;;;;;;5043203;28;20070;-64
2021/11/30 11:51:56;;;;;;;14.18;2.13;;;8.40;99.90;;;;;;5033352;28;20041;-64
2021/11/30 11:54:31;;;;;;;14.98;2.00;;;8.20;99.90;;;;;;5027164;28;20116;-64
2021/11/30 11:57:03;;;;;;;11.35;2.03;;;8.20;99.90;;;;;;5098779;28;20050;-64
2021/11/30 11:59:30;;;;;;;11.25;2.00;;;8.10;99.90;;;;;;5095733;27;20056;-64
2021/11/30 12:02:20;;;;;;;17.30;2.25;;;8.20;99.90;;;;;;5121498;27;20051;-64
2021/11/30 12:04:51;;;;;;;14.15;1.92;;;8.20;99.90;;;;;;5110121;27;20051;-64
2021/11/30 12:07:17;;;;;;;20.65;2.28;;;8.20;99.90;;;;;;5119082;27;20367;-64
2021/11/30 12:09:43;;;;;;;24.35;3.85;;;8.20;99.90;;;;;;5111620;27;20066;-66
2021/11/30 12:12:09;;;;;;;10.25;1.88;;;8.20;99.90;;;;;;5117409;27;20123;-64
2021/11/30 12:14:39;;;;;;;15.88;2.30;;;8.20;99.90;;;;;;5127098;27;20079;-64
2021/11/30 12:17:11;;;;;;;;;;;8.20;99.90;;;;;;5115661;27;20050;-64
2021/11/30 12:19:48;;;;;;;12.48;2.65;;;8.20;99.90;;;;;;5095645;28;20446;-64
2021/11/30 12:22:54;;;;;;;14.60;2.47;;;8.10;99.90;;;;;;5115493;28;20054;-63
2021/11/30 12:25:27;;;;;;;11.65;2.25;;;8.10;99.90;;;;;;5089840;27;20043;-65
2021/11/30 12:27:55;;;;;;;18.38;2.80;;;8.10;99.90;;;;;;5116382;27;20042;-64
2021/11/30 12:30:37;;;;;;;16.70;2.45;;;8.10;99.90;;;;;;5123137;27;20102;-64
2021/11/30 12:33:13;;;;;;;14.07;2.95;;;8.10;99.90;;;;;;5130680;27;20047;-64
2021/11/30 12:36:04;;;;;;;16.25;2.95;;;8.00;99.90;;;;;;5105319;28;20059;-63
2021/11/30 12:38:36;;;;;;;16.15;2.35;;;8.00;99.90;;;;;;5117880;27;20047;-63
2021/11/30 12:41:27;;;;;;;17.50;2.72;;;8.00;99.90;;;;;;5130161;27;20039;-63
2021/11/30 12:43:56;;;;;;;14.77;2.53;;;8.00;99.90;;;;;;5126806;27;20080;-63
2021/11/30 12:46:41;;;;;;;16.92;2.83;;;7.90;99.90;;;;;;5119986;27;20040;-64
2021/11/30 12:49:30;;;;;;;13.77;2.75;;;7.80;99.90;;;;;;5127068;27;20043;-63
2021/11/30 12:52:08;;;;;;;20.17;3.00;;;7.80;99.90;;;;;;5120865;27;20043;-63
2021/11/30 12:54:35;;;;;;;17.48;3.00;;;7.80;99.90;;;;;;5130726;27;20074;-63
2021/11/30 12:57:03;;;;;;;19.35;2.40;;;7.80;99.90;;;;;;5118479;27;20138;-64
2021/11/30 12:59:37;;;;;;;19.67;3.00;;;7.80;99.90;;;;;;5099989;27;20051;-64
2021/11/30 13:02:25;;;;;;;17.02;3.20;;;7.80;99.90;;;;;;5112579;27;20057;-63
2021/11/30 13:05:20;;;;;;;19.15;3.97;;;7.80;99.90;;;;;;5119631;27;20524;-63
2021/11/30 13:07:49;;;;;;;18.48;2.47;;;7.80;99.90;;;;;;5108529;27;20051;-63
2021/11/30 13:10:25;;;;;;;14.27;2.78;;;7.80;99.90;;;;;;5128364;27;20078;-63
2021/11/30 13:12:53;;;;;;;18.88;5.03;;;7.80;99.90;;;;;;5135503;27;20045;-63